sensor_id;sensor_type;location;lat;lon;timestamp;P1;durP1;ratioP1;P2;durP2;ratioP2
73113;SDS011;61301;51.956;5.876;2023-03-12T00:00:49;8.02;;;3.30;;
73113;SDS011;61301;51.956;5.876;2023-03-12T00:03:15;5.60;;;3.67;;
73113;SDS011;61301;51.956;5.876;2023-03-12T00:05:42;5.97;;;2.83;;
73113;SDS011;61301;51.956;5.876;2023-03-12T00:08:09;4.70;;;2.40;;
73113;SDS011;61301;51.956;5.876;2023-03-12T00:10:41;7.22;;;2.88;;
73113;SDS011;61301;51.956;5.876;2023-03-12T00:13:07;3.95;;;2.88;;
73113;SDS011;61301;51.956;5.876;2023-03-12T00:15:34;7.25;;;3.35;;
73113;SDS011;61301;51.956;5.876;2023-03-12T00:18:02;6.47;;;3.58;;
73113;SDS011;61301;51.956;5.876;2023-03-12T00:20:28;6.88;;;3.60;;
73113;SDS011;61301;51.956;5.876;2023-03-12T00:22:54;7.97;;;4.63;;
73113;SDS011;61301;51.956;5.876;2023-03-12T00:25:20;9.63;;;4.82;;
73113;SDS011;61301;51.956;5.876;2023-03-12T00:27:46;7.05;;;4.40;;
73113;SDS011;61301;51.956;5.876;2023-03-12T00:30:12;7.43;;;3.90;;
73113;SDS011;61301;51.956;5.876;2023-03-12T00:32:38;4.72;;;3.13;;
73113;SDS011;61301;51.956;5.876;2023-03-12T00:35:05;7.03;;;3.55;;
73113;SDS011;61301;51.956;5.876;2023-03-12T00:37:31;4.32;;;2.72;;
73113;SDS011;61301;51.956;5.876;2023-03-12T00:39:58;4.60;;;3.47;;
73113;SDS011;61301;51.956;5.876;2023-03-12T00:42:32;6.57;;;2.90;;
73113;SDS011;61301;51.956;5.876;2023-03-12T00:44:58;8.75;;;3.60;;
73113;SDS011;61301;51.956;5.876;2023-03-12T00:47:24;6.20;;;4.22;;
73113;SDS011;61301;51.956;5.876;2023-03-12T00:49:50;5.78;;;3.80;;
73113;SDS011;61301;51.956;5.876;2023-03-12T00:52:16;5.70;;;3.55;;
73113;SDS011;61301;51.956;5.876;2023-03-12T00:54:42;5.70;;;3.35;;
73113;SDS011;61301;51.956;5.876;2023-03-12T00:57:08;4.55;;;3.08;;
73113;SDS011;61301;51.956;5.876;2023-03-12T00:59:38;4.70;;;3.17;;
73113;SDS011;61301;51.956;5.876;2023-03-12T01:02:06;8.10;;;4.00;;
73113;SDS011;61301;51.956;5.876;2023-03-12T01:04:32;5.85;;;3.05;;
73113;SDS011;61301;51.956;5.876;2023-03-12T01:06:58;5.57;;;2.78;;
73113;SDS011;61301;51.956;5.876;2023-03-12T01:09:24;7.30;;;3.08;;
73113;SDS011;61301;51.956;5.876;2023-03-12T01:11:50;6.55;;;2.83;;
73113;SDS011;61301;51.956;5.876;2023-03-12T01:14:16;7.07;;;3.28;;
73113;SDS011;61301;51.956;5.876;2023-03-12T01:16:43;5.80;;;2.80;;
73113;SDS011;61301;51.956;5.876;2023-03-12T01:19:11;8.80;;;3.33;;
73113;SDS011;61301;51.956;5.876;2023-03-12T01:21:38;5.28;;;3.22;;
73113;SDS011;61301;51.956;5.876;2023-03-12T01:24:04;4.80;;;2.95;;
73113;SDS011;61301;51.956;5.876;2023-03-12T01:26:31;4.97;;;2.65;;
73113;SDS011;61301;51.956;5.876;2023-03-12T01:28:57;6.05;;;3.10;;
73113;SDS011;61301;51.956;5.876;2023-03-12T01:31:23;6.28;;;3.15;;
73113;SDS011;61301;51.956;5.876;2023-03-12T01:33:50;7.18;;;2.60;;
73113;SDS011;61301;51.956;5.876;2023-03-12T01:36:18;5.93;;;3.03;;
73113;SDS011;61301;51.956;5.876;2023-03-12T01:38:50;7.47;;;3.13;;
73113;SDS011;61301;51.956;5.876;2023-03-12T01:41:17;5.90;;;3.50;;
73113;SDS011;61301;51.956;5.876;2023-03-12T01:43:43;7.75;;;3.58;;
73113;SDS011;61301;51.956;5.876;2023-03-12T01:46:24;6.93;;;3.17;;
73113;SDS011;61301;51.956;5.876;2023-03-12T01:49:00;6.85;;;3.15;;
73113;SDS011;61301;51.956;5.876;2023-03-12T01:52:16;7.32;;;3.20;;
73113;SDS011;61301;51.956;5.876;2023-03-12T01:56:58;6.18;;;3.08;;
73113;SDS011;61301;51.956;5.876;2023-03-12T01:59:32;6.88;;;2.90;;
73113;SDS011;61301;51.956;5.876;2023-03-12T02:02:03;6.55;;;3.42;;
73113;SDS011;61301;51.956;5.876;2023-03-12T02:04:31;4.45;;;2.50;;
73113;SDS011;61301;51.956;5.876;2023-03-12T02:09:45;5.28;;;2.63;;
73113;SDS011;61301;51.956;5.876;2023-03-12T02:12:13;6.47;;;2.60;;
73113;SDS011;61301;51.956;5.876;2023-03-12T02:14:40;5.18;;;2.88;;
73113;SDS011;61301;51.956;5.876;2023-03-12T02:17:07;5.22;;;2.67;;
73113;SDS011;61301;51.956;5.876;2023-03-12T02:22:10;7.35;;;3.10;;
73113;SDS011;61301;51.956;5.876;2023-03-12T02:27:09;5.13;;;2.10;;
73113;SDS011;61301;51.956;5.876;2023-03-12T02:29:36;5.22;;;2.83;;
73113;SDS011;61301;51.956;5.876;2023-03-12T02:32:06;7.05;;;2.72;;
73113;SDS011;61301;51.956;5.876;2023-03-12T02:34:34;3.83;;;2.22;;
73113;SDS011;61301;51.956;5.876;2023-03-12T02:37:00;5.85;;;2.63;;
73113;SDS011;61301;51.956;5.876;2023-03-12T02:39:26;4.45;;;2.03;;
73113;SDS011;61301;51.956;5.876;2023-03-12T02:41:53;6.68;;;1.85;;
73113;SDS011;61301;51.956;5.876;2023-03-12T02:44:29;4.47;;;2.50;;
73113;SDS011;61301;51.956;5.876;2023-03-12T02:46:58;5.93;;;2.30;;
73113;SDS011;61301;51.956;5.876;2023-03-12T02:49:27;6.43;;;2.05;;
73113;SDS011;61301;51.956;5.876;2023-03-12T02:51:55;4.95;;;2.00;;
73113;SDS011;61301;51.956;5.876;2023-03-12T02:54:21;5.35;;;2.13;;
73113;SDS011;61301;51.956;5.876;2023-03-12T02:56:48;7.63;;;2.30;;
73113;SDS011;61301;51.956;5.876;2023-03-12T02:59:16;5.72;;;1.98;;
73113;SDS011;61301;51.956;5.876;2023-03-12T03:01:45;5.45;;;2.10;;
73113;SDS011;61301;51.956;5.876;2023-03-12T03:04:12;5.20;;;2.05;;
73113;SDS011;61301;51.956;5.876;2023-03-12T03:06:39;6.28;;;1.88;;
73113;SDS011;61301;51.956;5.876;2023-03-12T03:09:07;4.82;;;1.92;;
73113;SDS011;61301;51.956;5.876;2023-03-12T03:11:33;3.67;;;1.42;;
73113;SDS011;61301;51.956;5.876;2023-03-12T03:14:04;3.33;;;1.50;;
73113;SDS011;61301;51.956;5.876;2023-03-12T03:16:32;6.53;;;1.85;;
73113;SDS011;61301;51.956;5.876;2023-03-12T03:18:58;4.35;;;2.42;;
73113;SDS011;61301;51.956;5.876;2023-03-12T03:21:24;3.95;;;2.38;;
73113;SDS011;61301;51.956;5.876;2023-03-12T03:23:50;7.07;;;3.22;;
73113;SDS011;61301;51.956;5.876;2023-03-12T03:26:17;7.35;;;2.67;;
73113;SDS011;61301;51.956;5.876;2023-03-12T03:28:45;7.70;;;2.40;;
73113;SDS011;61301;51.956;5.876;2023-03-12T03:31:13;6.18;;;2.30;;
73113;SDS011;61301;51.956;5.876;2023-03-12T03:33:41;5.70;;;2.17;;
73113;SDS011;61301;51.956;5.876;2023-03-12T03:36:08;5.60;;;2.28;;
73113;SDS011;61301;51.956;5.876;2023-03-12T03:38:40;5.20;;;2.38;;
73113;SDS011;61301;51.956;5.876;2023-03-12T03:41:07;7.20;;;2.55;;
73113;SDS011;61301;51.956;5.876;2023-03-12T03:43:38;10.60;;;2.45;;
73113;SDS011;61301;51.956;5.876;2023-03-12T03:46:05;7.38;;;2.72;;
73113;SDS011;61301;51.956;5.876;2023-03-12T03:48:34;6.20;;;2.45;;
73113;SDS011;61301;51.956;5.876;2023-03-12T03:51:01;6.25;;;1.83;;
73113;SDS011;61301;51.956;5.876;2023-03-12T03:53:32;5.63;;;2.45;;
73113;SDS011;61301;51.956;5.876;2023-03-12T03:56:10;5.60;;;3.60;;
73113;SDS011;61301;51.956;5.876;2023-03-12T03:58:40;7.53;;;2.53;;
73113;SDS011;61301;51.956;5.876;2023-03-12T04:01:07;6.68;;;2.40;;
73113;SDS011;61301;51.956;5.876;2023-03-12T04:03:34;5.30;;;2.42;;
73113;SDS011;61301;51.956;5.876;2023-03-12T04:06:03;6.63;;;2.78;;
73113;SDS011;61301;51.956;5.876;2023-03-12T04:08:32;6.53;;;2.03;;
73113;SDS011;61301;51.956;5.876;2023-03-12T04:11:07;9.65;;;3.15;;
73113;SDS011;61301;51.956;5.876;2023-03-12T04:13:36;10.90;;;3.08;;
73113;SDS011;61301;51.956;5.876;2023-03-12T04:16:02;7.15;;;3.10;;
73113;SDS011;61301;51.956;5.876;2023-03-12T04:18:29;7.20;;;2.25;;
73113;SDS011;61301;51.956;5.876;2023-03-12T04:20:55;7.63;;;2.67;;
73113;SDS011;61301;51.956;5.876;2023-03-12T04:23:21;6.78;;;2.22;;
73113;SDS011;61301;51.956;5.876;2023-03-12T04:25:48;7.75;;;2.40;;
73113;SDS011;61301;51.956;5.876;2023-03-12T04:28:14;6.55;;;2.38;;
73113;SDS011;61301;51.956;5.876;2023-03-12T04:30:40;6.57;;;2.15;;
73113;SDS011;61301;51.956;5.876;2023-03-12T04:33:06;6.03;;;1.90;;
73113;SDS011;61301;51.956;5.876;2023-03-12T04:35:33;5.88;;;2.15;;
73113;SDS011;61301;51.956;5.876;2023-03-12T04:37:59;6.88;;;2.65;;
73113;SDS011;61301;51.956;5.876;2023-03-12T04:40:26;10.75;;;2.38;;
73113;SDS011;61301;51.956;5.876;2023-03-12T04:42:52;4.57;;;1.83;;
73113;SDS011;61301;51.956;5.876;2023-03-12T04:45:19;5.68;;;1.88;;
73113;SDS011;61301;51.956;5.876;2023-03-12T04:47:46;3.50;;;2.28;;
73113;SDS011;61301;51.956;5.876;2023-03-12T04:50:13;5.53;;;2.35;;
73113;SDS011;61301;51.956;5.876;2023-03-12T04:52:40;6.15;;;2.17;;
73113;SDS011;61301;51.956;5.876;2023-03-12T04:55:07;9.20;;;2.30;;
73113;SDS011;61301;51.956;5.876;2023-03-12T04:57:33;6.60;;;3.05;;
73113;SDS011;61301;51.956;5.876;2023-03-12T04:59:59;6.82;;;2.30;;
73113;SDS011;61301;51.956;5.876;2023-03-12T05:02:26;3.38;;;1.80;;
73113;SDS011;61301;51.956;5.876;2023-03-12T05:04:54;5.65;;;1.98;;
73113;SDS011;61301;51.956;5.876;2023-03-12T05:07:21;3.80;;;2.10;;
73113;SDS011;61301;51.956;5.876;2023-03-12T05:09:47;5.32;;;2.05;;
73113;SDS011;61301;51.956;5.876;2023-03-12T05:12:13;8.40;;;2.70;;
73113;SDS011;61301;51.956;5.876;2023-03-12T05:14:39;5.45;;;2.17;;
73113;SDS011;61301;51.956;5.876;2023-03-12T05:17:06;6.22;;;2.72;;
73113;SDS011;61301;51.956;5.876;2023-03-12T05:19:33;4.55;;;2.10;;
73113;SDS011;61301;51.956;5.876;2023-03-12T05:21:59;8.05;;;2.13;;
73113;SDS011;61301;51.956;5.876;2023-03-12T05:24:26;5.20;;;2.13;;
73113;SDS011;61301;51.956;5.876;2023-03-12T05:26:55;7.45;;;2.13;;
73113;SDS011;61301;51.956;5.876;2023-03-12T05:29:23;6.18;;;2.97;;
73113;SDS011;61301;51.956;5.876;2023-03-12T05:31:50;8.68;;;3.00;;
73113;SDS011;61301;51.956;5.876;2023-03-12T05:34:16;7.95;;;2.80;;
73113;SDS011;61301;51.956;5.876;2023-03-12T05:36:44;9.05;;;2.60;;
73113;SDS011;61301;51.956;5.876;2023-03-12T05:39:11;8.80;;;2.88;;
73113;SDS011;61301;51.956;5.876;2023-03-12T05:41:38;6.88;;;2.67;;
73113;SDS011;61301;51.956;5.876;2023-03-12T05:44:11;8.35;;;3.75;;
73113;SDS011;61301;51.956;5.876;2023-03-12T05:46:39;6.30;;;3.25;;
73113;SDS011;61301;51.956;5.876;2023-03-12T05:49:05;9.70;;;3.85;;
73113;SDS011;61301;51.956;5.876;2023-03-12T05:51:32;7.20;;;3.28;;
73113;SDS011;61301;51.956;5.876;2023-03-12T05:53:58;8.05;;;3.20;;
73113;SDS011;61301;51.956;5.876;2023-03-12T05:56:24;4.57;;;3.08;;
73113;SDS011;61301;51.956;5.876;2023-03-12T05:58:51;10.77;;;3.30;;
73113;SDS011;61301;51.956;5.876;2023-03-12T06:01:20;6.00;;;2.72;;
73113;SDS011;61301;51.956;5.876;2023-03-12T06:03:47;11.38;;;2.88;;
73113;SDS011;61301;51.956;5.876;2023-03-12T06:06:17;8.98;;;2.78;;
73113;SDS011;61301;51.956;5.876;2023-03-12T06:08:44;10.02;;;2.47;;
73113;SDS011;61301;51.956;5.876;2023-03-12T06:11:11;9.02;;;2.78;;
73113;SDS011;61301;51.956;5.876;2023-03-12T06:13:38;6.65;;;2.47;;
73113;SDS011;61301;51.956;5.876;2023-03-12T06:16:13;5.13;;;2.30;;
73113;SDS011;61301;51.956;5.876;2023-03-12T06:18:42;7.57;;;3.25;;
73113;SDS011;61301;51.956;5.876;2023-03-12T06:21:13;9.85;;;3.00;;
73113;SDS011;61301;51.956;5.876;2023-03-12T06:23:41;9.82;;;2.75;;
73113;SDS011;61301;51.956;5.876;2023-03-12T06:26:10;9.23;;;3.55;;
73113;SDS011;61301;51.956;5.876;2023-03-12T06:28:38;8.43;;;3.42;;
73113;SDS011;61301;51.956;5.876;2023-03-12T06:31:04;5.75;;;3.13;;
73113;SDS011;61301;51.956;5.876;2023-03-12T06:33:31;7.20;;;2.92;;
73113;SDS011;61301;51.956;5.876;2023-03-12T06:35:58;8.07;;;3.17;;
73113;SDS011;61301;51.956;5.876;2023-03-12T06:38:25;7.18;;;2.90;;
73113;SDS011;61301;51.956;5.876;2023-03-12T06:41:02;5.47;;;2.65;;
73113;SDS011;61301;51.956;5.876;2023-03-12T06:43:33;5.90;;;2.90;;
73113;SDS011;61301;51.956;5.876;2023-03-12T06:46:00;7.45;;;3.20;;
73113;SDS011;61301;51.956;5.876;2023-03-12T06:48:27;9.43;;;2.95;;
73113;SDS011;61301;51.956;5.876;2023-03-12T06:50:54;8.40;;;3.17;;
73113;SDS011;61301;51.956;5.876;2023-03-12T06:53:20;7.47;;;3.00;;
73113;SDS011;61301;51.956;5.876;2023-03-12T06:55:48;7.43;;;3.13;;
73113;SDS011;61301;51.956;5.876;2023-03-12T06:58:15;8.70;;;3.05;;
73113;SDS011;61301;51.956;5.876;2023-03-12T07:00:41;5.93;;;2.95;;
73113;SDS011;61301;51.956;5.876;2023-03-12T07:03:07;6.50;;;2.90;;
73113;SDS011;61301;51.956;5.876;2023-03-12T07:05:33;8.18;;;3.17;;
73113;SDS011;61301;51.956;5.876;2023-03-12T07:07:59;6.28;;;2.85;;
73113;SDS011;61301;51.956;5.876;2023-03-12T07:10:26;7.03;;;3.22;;
73113;SDS011;61301;51.956;5.876;2023-03-12T07:12:55;9.27;;;3.35;;
73113;SDS011;61301;51.956;5.876;2023-03-12T07:15:21;8.00;;;3.42;;
73113;SDS011;61301;51.956;5.876;2023-03-12T07:17:48;6.93;;;2.63;;
73113;SDS011;61301;51.956;5.876;2023-03-12T07:20:14;7.72;;;3.30;;
73113;SDS011;61301;51.956;5.876;2023-03-12T07:22:40;4.90;;;2.78;;
73113;SDS011;61301;51.956;5.876;2023-03-12T07:25:07;11.73;;;3.72;;
73113;SDS011;61301;51.956;5.876;2023-03-12T07:27:33;6.45;;;3.53;;
73113;SDS011;61301;51.956;5.876;2023-03-12T07:29:59;7.03;;;3.40;;
73113;SDS011;61301;51.956;5.876;2023-03-12T07:32:25;11.77;;;3.50;;
73113;SDS011;61301;51.956;5.876;2023-03-12T07:34:51;6.18;;;3.20;;
73113;SDS011;61301;51.956;5.876;2023-03-12T07:37:17;10.98;;;3.83;;
73113;SDS011;61301;51.956;5.876;2023-03-12T07:39:43;6.50;;;3.47;;
73113;SDS011;61301;51.956;5.876;2023-03-12T07:42:09;8.48;;;3.80;;
73113;SDS011;61301;51.956;5.876;2023-03-12T07:44:37;9.32;;;4.28;;
73113;SDS011;61301;51.956;5.876;2023-03-12T07:47:03;12.00;;;4.18;;
73113;SDS011;61301;51.956;5.876;2023-03-12T07:49:30;8.38;;;4.20;;
73113;SDS011;61301;51.956;5.876;2023-03-12T07:51:56;12.93;;;4.20;;
73113;SDS011;61301;51.956;5.876;2023-03-12T07:54:21;8.35;;;4.05;;
73113;SDS011;61301;51.956;5.876;2023-03-12T07:56:50;10.48;;;5.28;;
73113;SDS011;61301;51.956;5.876;2023-03-12T07:59:16;5.93;;;3.08;;
73113;SDS011;61301;51.956;5.876;2023-03-12T08:01:44;8.40;;;4.25;;
73113;SDS011;61301;51.956;5.876;2023-03-12T08:04:10;9.10;;;4.20;;
73113;SDS011;61301;51.956;5.876;2023-03-12T08:06:36;13.57;;;5.35;;
73113;SDS011;61301;51.956;5.876;2023-03-12T08:09:03;11.00;;;4.30;;
73113;SDS011;61301;51.956;5.876;2023-03-12T08:11:32;7.22;;;3.78;;
73113;SDS011;61301;51.956;5.876;2023-03-12T08:13:58;7.90;;;4.15;;
73113;SDS011;61301;51.956;5.876;2023-03-12T08:16:24;8.10;;;3.80;;
73113;SDS011;61301;51.956;5.876;2023-03-12T08:18:50;7.63;;;4.20;;
73113;SDS011;61301;51.956;5.876;2023-03-12T08:21:16;8.82;;;4.43;;
73113;SDS011;61301;51.956;5.876;2023-03-12T08:23:42;10.25;;;4.43;;
73113;SDS011;61301;51.956;5.876;2023-03-12T08:26:08;10.35;;;4.97;;
73113;SDS011;61301;51.956;5.876;2023-03-12T08:28:34;8.38;;;5.00;;
73113;SDS011;61301;51.956;5.876;2023-03-12T08:31:00;8.63;;;4.90;;
73113;SDS011;61301;51.956;5.876;2023-03-12T08:33:27;8.70;;;4.50;;
73113;SDS011;61301;51.956;5.876;2023-03-12T08:35:53;11.32;;;4.00;;
73113;SDS011;61301;51.956;5.876;2023-03-12T08:38:19;6.63;;;4.70;;
73113;SDS011;61301;51.956;5.876;2023-03-12T08:40:45;7.20;;;4.95;;
73113;SDS011;61301;51.956;5.876;2023-03-12T08:43:11;6.25;;;4.95;;
73113;SDS011;61301;51.956;5.876;2023-03-12T08:45:37;8.57;;;4.22;;
73113;SDS011;61301;51.956;5.876;2023-03-12T08:48:04;8.90;;;5.40;;
73113;SDS011;61301;51.956;5.876;2023-03-12T08:50:31;9.73;;;5.30;;
73113;SDS011;61301;51.956;5.876;2023-03-12T08:52:57;8.07;;;4.63;;
73113;SDS011;61301;51.956;5.876;2023-03-12T08:55:24;11.25;;;5.97;;
73113;SDS011;61301;51.956;5.876;2023-03-12T08:57:53;8.60;;;5.70;;
73113;SDS011;61301;51.956;5.876;2023-03-12T09:00:19;8.30;;;5.85;;
73113;SDS011;61301;51.956;5.876;2023-03-12T09:02:46;10.55;;;5.82;;
73113;SDS011;61301;51.956;5.876;2023-03-12T09:05:12;7.28;;;5.07;;
73113;SDS011;61301;51.956;5.876;2023-03-12T09:07:38;11.27;;;6.63;;
73113;SDS011;61301;51.956;5.876;2023-03-12T09:10:05;9.07;;;6.50;;
73113;SDS011;61301;51.956;5.876;2023-03-12T09:12:31;9.32;;;5.28;;
73113;SDS011;61301;51.956;5.876;2023-03-12T09:14:57;9.63;;;5.45;;
73113;SDS011;61301;51.956;5.876;2023-03-12T09:17:23;8.07;;;6.57;;
73113;SDS011;61301;51.956;5.876;2023-03-12T09:19:49;11.65;;;6.60;;
73113;SDS011;61301;51.956;5.876;2023-03-12T09:22:15;10.02;;;6.43;;
73113;SDS011;61301;51.956;5.876;2023-03-12T09:24:42;10.57;;;6.07;;
73113;SDS011;61301;51.956;5.876;2023-03-12T09:27:08;8.35;;;6.60;;
73113;SDS011;61301;51.956;5.876;2023-03-12T09:29:34;12.00;;;7.35;;
73113;SDS011;61301;51.956;5.876;2023-03-12T09:32:01;10.00;;;7.50;;
73113;SDS011;61301;51.956;5.876;2023-03-12T09:34:27;9.82;;;7.50;;
73113;SDS011;61301;51.956;5.876;2023-03-12T09:36:53;12.18;;;7.60;;
73113;SDS011;61301;51.956;5.876;2023-03-12T09:39:19;10.48;;;7.30;;
73113;SDS011;61301;51.956;5.876;2023-03-12T09:41:48;9.68;;;7.10;;
73113;SDS011;61301;51.956;5.876;2023-03-12T09:44:29;9.93;;;7.38;;
73113;SDS011;61301;51.956;5.876;2023-03-12T09:47:03;10.10;;;7.10;;
73113;SDS011;61301;51.956;5.876;2023-03-12T09:49:38;10.48;;;8.07;;
73113;SDS011;61301;51.956;5.876;2023-03-12T09:55:07;15.38;;;8.90;;
73113;SDS011;61301;51.956;5.876;2023-03-12T09:57:40;10.98;;;9.15;;
73113;SDS011;61301;51.956;5.876;2023-03-12T10:00:07;15.15;;;9.73;;
73113;SDS011;61301;51.956;5.876;2023-03-12T10:05:36;16.02;;;9.68;;
73113;SDS011;61301;51.956;5.876;2023-03-12T10:22:42;18.40;;;12.65;;
73113;SDS011;61301;51.956;5.876;2023-03-12T10:28:17;25.63;;;15.68;;
73113;SDS011;61301;51.956;5.876;2023-03-12T10:30:49;21.73;;;15.48;;
73113;SDS011;61301;51.956;5.876;2023-03-12T10:33:19;28.98;;;16.45;;
73113;SDS011;61301;51.956;5.876;2023-03-12T10:35:47;23.13;;;15.85;;
73113;SDS011;61301;51.956;5.876;2023-03-12T10:38:16;24.85;;;16.75;;
73113;SDS011;61301;51.956;5.876;2023-03-12T10:40:47;18.75;;;15.27;;
73113;SDS011;61301;51.956;5.876;2023-03-12T10:43:13;23.98;;;17.23;;
73113;SDS011;61301;51.956;5.876;2023-03-12T10:45:42;19.05;;;14.90;;
73113;SDS011;61301;51.956;5.876;2023-03-12T10:48:24;21.90;;;14.60;;
73113;SDS011;61301;51.956;5.876;2023-03-12T10:53:26;25.58;;;16.42;;
73113;SDS011;61301;51.956;5.876;2023-03-12T10:58:38;18.27;;;14.48;;
73113;SDS011;61301;51.956;5.876;2023-03-12T11:01:15;24.67;;;17.45;;
73113;SDS011;61301;51.956;5.876;2023-03-12T11:03:50;26.27;;;18.08;;
73113;SDS011;61301;51.956;5.876;2023-03-12T11:06:22;26.45;;;17.75;;
73113;SDS011;61301;51.956;5.876;2023-03-12T11:09:05;23.00;;;17.98;;
73113;SDS011;61301;51.956;5.876;2023-03-12T11:11:41;24.58;;;18.50;;
73113;SDS011;61301;51.956;5.876;2023-03-12T11:14:14;30.48;;;19.33;;
73113;SDS011;61301;51.956;5.876;2023-03-12T11:16:43;26.77;;;17.23;;
73113;SDS011;61301;51.956;5.876;2023-03-12T11:19:11;26.38;;;17.73;;
73113;SDS011;61301;51.956;5.876;2023-03-12T11:21:39;24.48;;;17.15;;
73113;SDS011;61301;51.956;5.876;2023-03-12T11:24:23;24.98;;;16.27;;
73113;SDS011;61301;51.956;5.876;2023-03-12T11:26:50;30.65;;;18.27;;
73113;SDS011;61301;51.956;5.876;2023-03-12T11:29:38;23.15;;;15.57;;
73113;SDS011;61301;51.956;5.876;2023-03-12T11:34:36;22.55;;;14.80;;
73113;SDS011;61301;51.956;5.876;2023-03-12T11:37:14;22.25;;;12.40;;
73113;SDS011;61301;51.956;5.876;2023-03-12T11:39:50;26.08;;;12.10;;
73113;SDS011;61301;51.956;5.876;2023-03-12T11:45:07;31.75;;;11.27;;
73113;SDS011;61301;51.956;5.876;2023-03-12T11:53:22;26.67;;;9.43;;
73113;SDS011;61301;51.956;5.876;2023-03-12T11:56:28;25.25;;;8.93;;
73113;SDS011;61301;51.956;5.876;2023-03-12T12:07:12;30.05;;;7.20;;
73113;SDS011;61301;51.956;5.876;2023-03-12T12:10:05;30.08;;;6.97;;
73113;SDS011;61301;51.956;5.876;2023-03-12T12:15:32;26.75;;;6.88;;
73113;SDS011;61301;51.956;5.876;2023-03-12T12:18:12;29.70;;;7.25;;
73113;SDS011;61301;51.956;5.876;2023-03-12T12:23:17;23.98;;;7.32;;
73113;SDS011;61301;51.956;5.876;2023-03-12T12:25:58;21.83;;;5.70;;
73113;SDS011;61301;51.956;5.876;2023-03-12T12:36:32;25.08;;;6.90;;
73113;SDS011;61301;51.956;5.876;2023-03-12T12:39:11;31.63;;;6.65;;
73113;SDS011;61301;51.956;5.876;2023-03-12T12:41:43;26.27;;;6.95;;
73113;SDS011;61301;51.956;5.876;2023-03-12T12:44:17;30.95;;;6.55;;
73113;SDS011;61301;51.956;5.876;2023-03-12T12:46:49;27.02;;;6.60;;
73113;SDS011;61301;51.956;5.876;2023-03-12T12:49:21;21.23;;;5.30;;
73113;SDS011;61301;51.956;5.876;2023-03-12T12:51:52;20.55;;;5.60;;
73113;SDS011;61301;51.956;5.876;2023-03-12T12:57:15;23.73;;;6.38;;
73113;SDS011;61301;51.956;5.876;2023-03-12T13:02:27;25.80;;;5.90;;
73113;SDS011;61301;51.956;5.876;2023-03-12T13:04:57;26.30;;;4.95;;
73113;SDS011;61301;51.956;5.876;2023-03-12T13:09:50;31.10;;;6.68;;
73113;SDS011;61301;51.956;5.876;2023-03-12T13:14:57;30.98;;;6.15;;
73113;SDS011;61301;51.956;5.876;2023-03-12T13:20:16;27.17;;;6.63;;
73113;SDS011;61301;51.956;5.876;2023-03-12T13:22:54;31.20;;;6.55;;
73113;SDS011;61301;51.956;5.876;2023-03-12T13:30:55;37.28;;;7.13;;
73113;SDS011;61301;51.956;5.876;2023-03-12T13:33:36;29.08;;;5.88;;
73113;SDS011;61301;51.956;5.876;2023-03-12T13:36:09;31.95;;;6.65;;
73113;SDS011;61301;51.956;5.876;2023-03-12T13:41:47;35.72;;;7.55;;
73113;SDS011;61301;51.956;5.876;2023-03-12T13:46:57;35.40;;;7.93;;
73113;SDS011;61301;51.956;5.876;2023-03-12T13:49:33;39.58;;;8.43;;
73113;SDS011;61301;51.956;5.876;2023-03-12T13:57:42;41.25;;;7.95;;
73113;SDS011;61301;51.956;5.876;2023-03-12T14:00:11;31.98;;;6.88;;
73113;SDS011;61301;51.956;5.876;2023-03-12T14:02:51;38.30;;;9.00;;
73113;SDS011;61301;51.956;5.876;2023-03-12T14:05:22;29.75;;;6.68;;
73113;SDS011;61301;51.956;5.876;2023-03-12T14:07:51;31.90;;;6.55;;
73113;SDS011;61301;51.956;5.876;2023-03-12T14:16:29;37.53;;;6.63;;
73113;SDS011;61301;51.956;5.876;2023-03-12T14:19:11;30.05;;;5.93;;
73113;SDS011;61301;51.956;5.876;2023-03-12T14:21:39;29.58;;;5.40;;
73113;SDS011;61301;51.956;5.876;2023-03-12T14:24:13;29.08;;;6.68;;
73113;SDS011;61301;51.956;5.876;2023-03-12T14:26:50;33.63;;;7.25;;
73113;SDS011;61301;51.956;5.876;2023-03-12T14:29:30;34.92;;;6.30;;
73113;SDS011;61301;51.956;5.876;2023-03-12T14:32:02;27.25;;;5.65;;
73113;SDS011;61301;51.956;5.876;2023-03-12T14:34:32;24.38;;;5.43;;
73113;SDS011;61301;51.956;5.876;2023-03-12T14:42:21;31.50;;;6.18;;
73113;SDS011;61301;51.956;5.876;2023-03-12T14:45:02;21.15;;;5.07;;
73113;SDS011;61301;51.956;5.876;2023-03-12T14:47:39;19.60;;;4.30;;
73113;SDS011;61301;51.956;5.876;2023-03-12T14:50:15;19.48;;;4.03;;
73113;SDS011;61301;51.956;5.876;2023-03-12T14:52:46;19.83;;;4.40;;
73113;SDS011;61301;51.956;5.876;2023-03-12T14:55:14;14.02;;;3.83;;
73113;SDS011;61301;51.956;5.876;2023-03-12T14:57:43;28.63;;;6.20;;
73113;SDS011;61301;51.956;5.876;2023-03-12T15:00:24;18.88;;;4.53;;
73113;SDS011;61301;51.956;5.876;2023-03-12T15:02:52;22.27;;;5.88;;
73113;SDS011;61301;51.956;5.876;2023-03-12T15:05:21;26.85;;;5.45;;
73113;SDS011;61301;51.956;5.876;2023-03-12T15:07:49;27.90;;;5.40;;
73113;SDS011;61301;51.956;5.876;2023-03-12T15:10:23;19.42;;;4.47;;
73113;SDS011;61301;51.956;5.876;2023-03-12T15:12:51;24.55;;;4.78;;
73113;SDS011;61301;51.956;5.876;2023-03-12T15:17:56;26.65;;;4.90;;
73113;SDS011;61301;51.956;5.876;2023-03-12T15:20:23;26.95;;;5.25;;
73113;SDS011;61301;51.956;5.876;2023-03-12T15:22:51;25.23;;;4.82;;
73113;SDS011;61301;51.956;5.876;2023-03-12T15:25:25;25.02;;;5.13;;
73113;SDS011;61301;51.956;5.876;2023-03-12T15:28:27;27.08;;;5.35;;
73113;SDS011;61301;51.956;5.876;2023-03-12T15:31:02;22.05;;;4.85;;
73113;SDS011;61301;51.956;5.876;2023-03-12T15:33:35;26.65;;;4.72;;
73113;SDS011;61301;51.956;5.876;2023-03-12T15:36:05;22.27;;;4.65;;
73113;SDS011;61301;51.956;5.876;2023-03-12T15:38:45;23.10;;;4.70;;
73113;SDS011;61301;51.956;5.876;2023-03-12T15:41:45;17.27;;;3.72;;
73113;SDS011;61301;51.956;5.876;2023-03-12T15:44:20;28.45;;;4.50;;
73113;SDS011;61301;51.956;5.876;2023-03-12T15:47:31;20.52;;;4.53;;
73113;SDS011;61301;51.956;5.876;2023-03-12T15:49:39;21.83;;;5.10;;
73113;SDS011;61301;51.956;5.876;2023-03-12T15:57:43;26.67;;;5.55;;
73113;SDS011;61301;51.956;5.876;2023-03-12T16:00:16;22.15;;;5.80;;
73113;SDS011;61301;51.956;5.876;2023-03-12T16:05:15;29.05;;;6.47;;
73113;SDS011;61301;51.956;5.876;2023-03-12T16:07:41;21.00;;;4.28;;
73113;SDS011;61301;51.956;5.876;2023-03-12T16:10:11;30.73;;;5.80;;
73113;SDS011;61301;51.956;5.876;2023-03-12T16:12:40;23.75;;;5.40;;
73113;SDS011;61301;51.956;5.876;2023-03-12T16:15:11;31.60;;;5.63;;
73113;SDS011;61301;51.956;5.876;2023-03-12T16:17:39;29.95;;;5.82;;
73113;SDS011;61301;51.956;5.876;2023-03-12T16:20:05;25.65;;;5.75;;
73113;SDS011;61301;51.956;5.876;2023-03-12T16:22:34;23.70;;;5.93;;
73113;SDS011;61301;51.956;5.876;2023-03-12T16:25:00;26.33;;;5.25;;
73113;SDS011;61301;51.956;5.876;2023-03-12T16:27:29;27.83;;;5.68;;
73113;SDS011;61301;51.956;5.876;2023-03-12T16:29:56;35.10;;;6.57;;
73113;SDS011;61301;51.956;5.876;2023-03-12T16:32:22;29.40;;;6.50;;
73113;SDS011;61301;51.956;5.876;2023-03-12T16:34:48;31.92;;;6.00;;
73113;SDS011;61301;51.956;5.876;2023-03-12T16:37:14;33.25;;;6.03;;
73113;SDS011;61301;51.956;5.876;2023-03-12T16:39:40;21.27;;;4.43;;
73113;SDS011;61301;51.956;5.876;2023-03-12T16:42:14;29.55;;;6.95;;
73113;SDS011;61301;51.956;5.876;2023-03-12T16:44:42;25.58;;;6.18;;
73113;SDS011;61301;51.956;5.876;2023-03-12T16:47:10;26.60;;;5.97;;
73113;SDS011;61301;51.956;5.876;2023-03-12T16:49:37;23.10;;;5.97;;
73113;SDS011;61301;51.956;5.876;2023-03-12T16:54:48;31.17;;;5.68;;
73113;SDS011;61301;51.956;5.876;2023-03-12T16:57:19;26.85;;;6.50;;
73113;SDS011;61301;51.956;5.876;2023-03-12T16:59:51;35.88;;;6.97;;